sensor_id;sensor_type;location;lat;lon;timestamp;temperature;humidity
44990;DHT22;30723;51.206;3.326;2024-02-14T00:00:03;10.50;99.90
44990;DHT22;30723;51.206;3.326;2024-02-14T00:02:29;10.50;99.90
44990;DHT22;30723;51.206;3.326;2024-02-14T00:04:56;10.50;99.90
44990;DHT22;30723;51.206;3.326;2024-02-14T00:07:22;10.50;99.90
44990;DHT22;30723;51.206;3.326;2024-02-14T00:09:48;10.50;99.90
44990;DHT22;30723;51.206;3.326;2024-02-14T00:12:14;10.40;99.90
44990;DHT22;30723;51.206;3.326;2024-02-14T00:14:40;10.30;99.90
44990;DHT22;30723;51.206;3.326;2024-02-14T00:17:06;10.30;99.90
44990;DHT22;30723;51.206;3.326;2024-02-14T00:19:32;10.30;99.90
44990;DHT22;30723;51.206;3.326;2024-02-14T00:21:58;10.30;99.90
44990;DHT22;30723;51.206;3.326;2024-02-14T00:24:24;10.20;99.90
44990;DHT22;30723;51.206;3.326;2024-02-14T00:26:52;10.20;99.90
44990;DHT22;30723;51.206;3.326;2024-02-14T00:29:18;10.20;99.90
44990;DHT22;30723;51.206;3.326;2024-02-14T00:31:44;10.10;99.90
44990;DHT22;30723;51.206;3.326;2024-02-14T00:34:10;10.10;99.90
44990;DHT22;30723;51.206;3.326;2024-02-14T00:36:36;10.20;99.90
44990;DHT22;30723;51.206;3.326;2024-02-14T00:39:02;10.20;99.90
44990;DHT22;30723;51.206;3.326;2024-02-14T00:41:28;10.20;99.90
44990;DHT22;30723;51.206;3.326;2024-02-14T00:43:56;10.20;99.90
44990;DHT22;30723;51.206;3.326;2024-02-14T00:46:22;10.20;99.90
44990;DHT22;30723;51.206;3.326;2024-02-14T00:48:48;10.20;99.90
44990;DHT22;30723;51.206;3.326;2024-02-14T00:51:14;10.20;99.90
44990;DHT22;30723;51.206;3.326;2024-02-14T00:53:40;10.20;99.90
44990;DHT22;30723;51.206;3.326;2024-02-14T00:56:06;10.10;99.90
44990;DHT22;30723;51.206;3.326;2024-02-14T00:58:32;10.20;99.90
44990;DHT22;30723;51.206;3.326;2024-02-14T01:00:58;10.20;99.90
44990;DHT22;30723;51.206;3.326;2024-02-14T01:03:24;10.20;99.90
44990;DHT22;30723;51.206;3.326;2024-02-14T01:05:49;10.20;99.90
44990;DHT22;30723;51.206;3.326;2024-02-14T01:08:15;10.20;99.90
44990;DHT22;30723;51.206;3.326;2024-02-14T01:10:42;10.20;99.90
44990;DHT22;30723;51.206;3.326;2024-02-14T01:13:08;10.30;99.90
44990;DHT22;30723;51.206;3.326;2024-02-14T01:15:35;10.30;99.90
44990;DHT22;30723;51.206;3.326;2024-02-14T01:18:01;10.30;99.90
44990;DHT22;30723;51.206;3.326;2024-02-14T01:20:26;10.30;99.90
44990;DHT22;30723;51.206;3.326;2024-02-14T01:22:52;10.30;99.90
44990;DHT22;30723;51.206;3.326;2024-02-14T01:25:18;10.30;99.90
44990;DHT22;30723;51.206;3.326;2024-02-14T01:27:44;10.30;99.90
44990;DHT22;30723;51.206;3.326;2024-02-14T01:30:10;10.30;99.90
44990;DHT22;30723;51.206;3.326;2024-02-14T01:32:37;10.30;99.90
44990;DHT22;30723;51.206;3.326;2024-02-14T01:35:03;10.30;99.90
44990;DHT22;30723;51.206;3.326;2024-02-14T01:37:29;10.30;99.90
44990;DHT22;30723;51.206;3.326;2024-02-14T01:39:55;10.30;99.90
44990;DHT22;30723;51.206;3.326;2024-02-14T01:42:21;10.40;99.90
44990;DHT22;30723;51.206;3.326;2024-02-14T01:44:47;10.40;99.90
44990;DHT22;30723;51.206;3.326;2024-02-14T01:47:13;10.40;99.90
44990;DHT22;30723;51.206;3.326;2024-02-14T01:49:39;10.40;99.90
44990;DHT22;30723;51.206;3.326;2024-02-14T01:52:10;10.50;99.90
44990;DHT22;30723;51.206;3.326;2024-02-14T01:54:36;10.50;99.90
44990;DHT22;30723;51.206;3.326;2024-02-14T01:57:02;10.50;99.90
44990;DHT22;30723;51.206;3.326;2024-02-14T01:59:28;10.50;99.90
44990;DHT22;30723;51.206;3.326;2024-02-14T02:01:55;10.50;99.90
44990;DHT22;30723;51.206;3.326;2024-02-14T02:04:21;10.50;99.90
44990;DHT22;30723;51.206;3.326;2024-02-14T02:06:47;10.50;99.90
44990;DHT22;30723;51.206;3.326;2024-02-14T02:09:13;10.40;99.90
44990;DHT22;30723;51.206;3.326;2024-02-14T02:11:49;10.50;99.90
44990;DHT22;30723;51.206;3.326;2024-02-14T02:14:16;10.50;99.90
44990;DHT22;30723;51.206;3.326;2024-02-14T02:16:42;10.50;99.90
44990;DHT22;30723;51.206;3.326;2024-02-14T02:19:08;10.50;99.90
44990;DHT22;30723;51.206;3.326;2024-02-14T02:21:38;10.50;99.90
44990;DHT22;30723;51.206;3.326;2024-02-14T02:24:04;10.60;99.90
44990;DHT22;30723;51.206;3.326;2024-02-14T02:26:30;10.60;99.90
44990;DHT22;30723;51.206;3.326;2024-02-14T02:28:56;10.60;99.90
44990;DHT22;30723;51.206;3.326;2024-02-14T02:31:22;10.50;99.90
44990;DHT22;30723;51.206;3.326;2024-02-14T02:33:48;10.60;99.90
44990;DHT22;30723;51.206;3.326;2024-02-14T02:36:15;10.60;99.90
44990;DHT22;30723;51.206;3.326;2024-02-14T02:38:41;10.60;99.90
44990;DHT22;30723;51.206;3.326;2024-02-14T02:41:07;10.70;99.90
44990;DHT22;30723;51.206;3.326;2024-02-14T02:43:33;10.60;99.90
44990;DHT22;30723;51.206;3.326;2024-02-14T02:46:00;10.70;99.90
44990;DHT22;30723;51.206;3.326;2024-02-14T02:48:26;10.60;99.90
44990;DHT22;30723;51.206;3.326;2024-02-14T02:50:52;10.70;99.90
44990;DHT22;30723;51.206;3.326;2024-02-14T02:53:18;10.70;99.90
44990;DHT22;30723;51.206;3.326;2024-02-14T02:55:44;10.70;99.90
44990;DHT22;30723;51.206;3.326;2024-02-14T02:58:10;10.70;99.90
44990;DHT22;30723;51.206;3.326;2024-02-14T03:00:36;10.80;99.90
44990;DHT22;30723;51.206;3.326;2024-02-14T03:03:02;10.80;99.90
44990;DHT22;30723;51.206;3.326;2024-02-14T03:05:30;10.80;99.90
44990;DHT22;30723;51.206;3.326;2024-02-14T03:07:59;10.90;99.90
44990;DHT22;30723;51.206;3.326;2024-02-14T03:10:25;10.90;99.90
44990;DHT22;30723;51.206;3.326;2024-02-14T03:12:51;10.80;99.90
44990;DHT22;30723;51.206;3.326;2024-02-14T03:15:18;10.80;99.90
44990;DHT22;30723;51.206;3.326;2024-02-14T03:17:44;10.80;99.90
44990;DHT22;30723;51.206;3.326;2024-02-14T03:20:11;10.80;99.90
44990;DHT22;30723;51.206;3.326;2024-02-14T03:22:41;10.80;99.90
44990;DHT22;30723;51.206;3.326;2024-02-14T03:25:19;10.90;99.90
44990;DHT22;30723;51.206;3.326;2024-02-14T03:27:49;10.90;99.90
44990;DHT22;30723;51.206;3.326;2024-02-14T03:30:19;11.00;99.90
44990;DHT22;30723;51.206;3.326;2024-02-14T03:32:49;11.00;99.90
44990;DHT22;30723;51.206;3.326;2024-02-14T03:35:15;11.00;99.90
44990;DHT22;30723;51.206;3.326;2024-02-14T03:37:42;10.90;99.90
44990;DHT22;30723;51.206;3.326;2024-02-14T03:40:10;10.90;99.90
44990;DHT22;30723;51.206;3.326;2024-02-14T03:42:36;11.00;99.90
44990;DHT22;30723;51.206;3.326;2024-02-14T03:45:02;11.00;99.90
44990;DHT22;30723;51.206;3.326;2024-02-14T03:47:34;11.00;99.90
44990;DHT22;30723;51.206;3.326;2024-02-14T03:50:00;11.00;99.90
44990;DHT22;30723;51.206;3.326;2024-02-14T03:52:27;11.00;99.90
44990;DHT22;30723;51.206;3.326;2024-02-14T03:54:53;10.90;99.90
44990;DHT22;30723;51.206;3.326;2024-02-14T03:57:19;10.90;99.90
44990;DHT22;30723;51.206;3.326;2024-02-14T03:59:45;10.90;99.90
44990;DHT22;30723;51.206;3.326;2024-02-14T04:02:11;10.90;99.90
44990;DHT22;30723;51.206;3.326;2024-02-14T04:04:37;11.00;99.90
44990;DHT22;30723;51.206;3.326;2024-02-14T04:07:05;10.90;99.90
44990;DHT22;30723;51.206;3.326;2024-02-14T04:09:33;10.90;99.90
44990;DHT22;30723;51.206;3.326;2024-02-14T04:11:59;10.90;99.90
44990;DHT22;30723;51.206;3.326;2024-02-14T04:14:25;10.90;99.90
44990;DHT22;30723;51.206;3.326;2024-02-14T04:16:50;10.90;99.90
44990;DHT22;30723;51.206;3.326;2024-02-14T04:19:16;11.00;99.90
44990;DHT22;30723;51.206;3.326;2024-02-14T04:21:43;11.00;99.90
44990;DHT22;30723;51.206;3.326;2024-02-14T04:24:09;11.10;99.90
44990;DHT22;30723;51.206;3.326;2024-02-14T04:26:34;11.00;99.90
44990;DHT22;30723;51.206;3.326;2024-02-14T04:29:01;11.10;99.90
44990;DHT22;30723;51.206;3.326;2024-02-14T04:31:27;11.10;99.90
44990;DHT22;30723;51.206;3.326;2024-02-14T04:33:53;11.10;99.90
44990;DHT22;30723;51.206;3.326;2024-02-14T04:36:19;11.10;99.90
44990;DHT22;30723;51.206;3.326;2024-02-14T04:38:47;11.20;99.90
44990;DHT22;30723;51.206;3.326;2024-02-14T04:41:13;11.20;99.90
44990;DHT22;30723;51.206;3.326;2024-02-14T04:43:40;11.10;99.90
44990;DHT22;30723;51.206;3.326;2024-02-14T04:46:06;11.20;99.90
44990;DHT22;30723;51.206;3.326;2024-02-14T04:48:35;11.20;99.90
44990;DHT22;30723;51.206;3.326;2024-02-14T04:51:03;11.10;99.90
44990;DHT22;30723;51.206;3.326;2024-02-14T04:53:29;11.20;99.90
44990;DHT22;30723;51.206;3.326;2024-02-14T04:55:55;11.10;99.90
44990;DHT22;30723;51.206;3.326;2024-02-14T04:58:21;11.10;99.90
44990;DHT22;30723;51.206;3.326;2024-02-14T05:00:47;11.10;99.90
44990;DHT22;30723;51.206;3.326;2024-02-14T05:03:12;11.20;99.90
44990;DHT22;30723;51.206;3.326;2024-02-14T05:05:38;11.20;99.90
44990;DHT22;30723;51.206;3.326;2024-02-14T05:08:04;11.20;99.90
44990;DHT22;30723;51.206;3.326;2024-02-14T05:10:31;11.10;99.90
44990;DHT22;30723;51.206;3.326;2024-02-14T05:12:59;11.20;99.90
44990;DHT22;30723;51.206;3.326;2024-02-14T05:15:26;11.20;99.90
44990;DHT22;30723;51.206;3.326;2024-02-14T05:17:52;11.20;99.90
44990;DHT22;30723;51.206;3.326;2024-02-14T05:20:18;11.20;99.90
44990;DHT22;30723;51.206;3.326;2024-02-14T05:22:44;11.20;99.90
44990;DHT22;30723;51.206;3.326;2024-02-14T05:25:10;11.30;99.90
44990;DHT22;30723;51.206;3.326;2024-02-14T05:27:36;11.30;99.90
44990;DHT22;30723;51.206;3.326;2024-02-14T05:30:05;11.30;99.90
44990;DHT22;30723;51.206;3.326;2024-02-14T05:32:32;11.30;99.90
44990;DHT22;30723;51.206;3.326;2024-02-14T05:34:58;11.30;99.90
44990;DHT22;30723;51.206;3.326;2024-02-14T05:37:24;11.20;99.90
44990;DHT22;30723;51.206;3.326;2024-02-14T05:39:53;11.20;99.90
44990;DHT22;30723;51.206;3.326;2024-02-14T05:42:19;11.20;99.90
44990;DHT22;30723;51.206;3.326;2024-02-14T05:44:45;11.30;99.90
44990;DHT22;30723;51.206;3.326;2024-02-14T05:47:11;11.30;99.90
44990;DHT22;30723;51.206;3.326;2024-02-14T05:49:40;11.30;99.90
44990;DHT22;30723;51.206;3.326;2024-02-14T05:52:07;11.30;99.90
44990;DHT22;30723;51.206;3.326;2024-02-14T05:54:33;11.30;99.90
44990;DHT22;30723;51.206;3.326;2024-02-14T05:56:59;11.30;99.90
44990;DHT22;30723;51.206;3.326;2024-02-14T05:59:26;11.30;99.90
44990;DHT22;30723;51.206;3.326;2024-02-14T06:01:55;11.30;99.90
44990;DHT22;30723;51.206;3.326;2024-02-14T06:04:21;11.30;99.90
44990;DHT22;30723;51.206;3.326;2024-02-14T06:06:46;11.30;99.90
44990;DHT22;30723;51.206;3.326;2024-02-14T06:09:12;11.30;99.90
44990;DHT22;30723;51.206;3.326;2024-02-14T06:11:38;11.30;99.90
44990;DHT22;30723;51.206;3.326;2024-02-14T06:14:08;11.30;99.90
44990;DHT22;30723;51.206;3.326;2024-02-14T06:16:35;11.30;99.90
44990;DHT22;30723;51.206;3.326;2024-02-14T06:19:01;11.30;99.90
44990;DHT22;30723;51.206;3.326;2024-02-14T06:21:30;11.20;99.90
44990;DHT22;30723;51.206;3.326;2024-02-14T06:23:56;11.30;99.90
44990;DHT22;30723;51.206;3.326;2024-02-14T06:26:24;11.30;99.90
44990;DHT22;30723;51.206;3.326;2024-02-14T06:28:50;11.30;99.90
44990;DHT22;30723;51.206;3.326;2024-02-14T06:31:21;11.30;99.90
44990;DHT22;30723;51.206;3.326;2024-02-14T06:33:47;11.20;99.90
44990;DHT22;30723;51.206;3.326;2024-02-14T06:36:13;11.20;99.90
44990;DHT22;30723;51.206;3.326;2024-02-14T06:38:39;11.30;99.90
44990;DHT22;30723;51.206;3.326;2024-02-14T06:41:05;11.30;99.90
44990;DHT22;30723;51.206;3.326;2024-02-14T06:43:31;11.30;99.90
44990;DHT22;30723;51.206;3.326;2024-02-14T06:45:57;11.30;99.90
44990;DHT22;30723;51.206;3.326;2024-02-14T06:48:23;11.20;99.90
44990;DHT22;30723;51.206;3.326;2024-02-14T06:50:52;11.30;99.90
44990;DHT22;30723;51.206;3.326;2024-02-14T06:53:18;11.30;99.90
44990;DHT22;30723;51.206;3.326;2024-02-14T06:55:44;11.30;99.90
44990;DHT22;30723;51.206;3.326;2024-02-14T06:58:10;11.40;99.90
44990;DHT22;30723;51.206;3.326;2024-02-14T07:00:35;11.40;99.90
44990;DHT22;30723;51.206;3.326;2024-02-14T07:03:02;11.40;99.90
44990;DHT22;30723;51.206;3.326;2024-02-14T07:05:27;11.30;99.90
44990;DHT22;30723;51.206;3.326;2024-02-14T07:07:55;11.30;99.90
44990;DHT22;30723;51.206;3.326;2024-02-14T07:10:21;11.30;99.90
44990;DHT22;30723;51.206;3.326;2024-02-14T07:12:46;11.40;99.90
44990;DHT22;30723;51.206;3.326;2024-02-14T07:15:12;11.40;99.90
44990;DHT22;30723;51.206;3.326;2024-02-14T07:17:38;11.40;99.90
44990;DHT22;30723;51.206;3.326;2024-02-14T07:20:05;11.40;99.90
44990;DHT22;30723;51.206;3.326;2024-02-14T07:22:31;11.30;99.90
44990;DHT22;30723;51.206;3.326;2024-02-14T07:24:57;11.30;99.90
44990;DHT22;30723;51.206;3.326;2024-02-14T07:27:22;11.40;99.90
44990;DHT22;30723;51.206;3.326;2024-02-14T07:29:49;11.40;99.90
44990;DHT22;30723;51.206;3.326;2024-02-14T07:32:15;11.40;99.90
44990;DHT22;30723;51.206;3.326;2024-02-14T07:34:42;11.40;99.90
44990;DHT22;30723;51.206;3.326;2024-02-14T07:37:09;11.40;99.90
44990;DHT22;30723;51.206;3.326;2024-02-14T07:39:35;11.40;99.90
44990;DHT22;30723;51.206;3.326;2024-02-14T07:42:02;11.30;99.90
44990;DHT22;30723;51.206;3.326;2024-02-14T07:44:28;11.40;99.90
44990;DHT22;30723;51.206;3.326;2024-02-14T07:46:53;11.30;99.90
44990;DHT22;30723;51.206;3.326;2024-02-14T07:49:19;11.40;99.90
44990;DHT22;30723;51.206;3.326;2024-02-14T07:51:45;11.30;99.90
44990;DHT22;30723;51.206;3.326;2024-02-14T07:54:11;11.40;99.90
44990;DHT22;30723;51.206;3.326;2024-02-14T07:56:37;11.50;99.90
44990;DHT22;30723;51.206;3.326;2024-02-14T07:59:02;11.50;99.90
44990;DHT22;30723;51.206;3.326;2024-02-14T08:01:30;11.50;99.90
44990;DHT22;30723;51.206;3.326;2024-02-14T08:03:56;11.40;99.90
44990;DHT22;30723;51.206;3.326;2024-02-14T08:06:21;11.40;99.90
44990;DHT22;30723;51.206;3.326;2024-02-14T08:08:48;11.50;99.90
44990;DHT22;30723;51.206;3.326;2024-02-14T08:11:17;11.50;99.90
44990;DHT22;30723;51.206;3.326;2024-02-14T08:13:43;11.60;99.90
44990;DHT22;30723;51.206;3.326;2024-02-14T08:16:09;11.50;99.90
44990;DHT22;30723;51.206;3.326;2024-02-14T08:18:34;11.50;99.90
44990;DHT22;30723;51.206;3.326;2024-02-14T08:21:00;11.50;99.90
44990;DHT22;30723;51.206;3.326;2024-02-14T08:23:26;11.50;99.90
44990;DHT22;30723;51.206;3.326;2024-02-14T08:25:52;11.50;99.90
44990;DHT22;30723;51.206;3.326;2024-02-14T08:28:18;11.50;99.90
44990;DHT22;30723;51.206;3.326;2024-02-14T08:30:44;11.50;99.90
44990;DHT22;30723;51.206;3.326;2024-02-14T08:33:10;11.50;99.90
44990;DHT22;30723;51.206;3.326;2024-02-14T08:35:36;11.50;99.90
44990;DHT22;30723;51.206;3.326;2024-02-14T08:38:02;11.40;99.90
44990;DHT22;30723;51.206;3.326;2024-02-14T08:40:28;11.50;99.90
44990;DHT22;30723;51.206;3.326;2024-02-14T08:42:53;11.50;99.90
44990;DHT22;30723;51.206;3.326;2024-02-14T08:45:19;11.60;99.90
44990;DHT22;30723;51.206;3.326;2024-02-14T08:47:45;11.60;99.90
44990;DHT22;30723;51.206;3.326;2024-02-14T08:50:11;11.60;99.90
44990;DHT22;30723;51.206;3.326;2024-02-14T08:52:37;11.60;99.90
44990;DHT22;30723;51.206;3.326;2024-02-14T08:55:06;11.60;99.90
44990;DHT22;30723;51.206;3.326;2024-02-14T08:57:36;11.60;99.90
44990;DHT22;30723;51.206;3.326;2024-02-14T09:00:02;11.60;99.90
44990;DHT22;30723;51.206;3.326;2024-02-14T09:02:29;11.60;99.90
44990;DHT22;30723;51.206;3.326;2024-02-14T09:04:55;11.70;99.90
44990;DHT22;30723;51.206;3.326;2024-02-14T09:07:21;11.80;99.90
44990;DHT22;30723;51.206;3.326;2024-02-14T09:09:47;11.70;99.90
44990;DHT22;30723;51.206;3.326;2024-02-14T09:12:13;11.80;99.90
44990;DHT22;30723;51.206;3.326;2024-02-14T09:14:39;11.80;99.90
44990;DHT22;30723;51.206;3.326;2024-02-14T09:17:04;11.70;99.90
44990;DHT22;30723;51.206;3.326;2024-02-14T09:19:30;11.80;99.90
44990;DHT22;30723;51.206;3.326;2024-02-14T09:21:56;11.80;99.90
44990;DHT22;30723;51.206;3.326;2024-02-14T09:24:22;11.80;99.90
44990;DHT22;30723;51.206;3.326;2024-02-14T09:26:47;11.80;99.90
44990;DHT22;30723;51.206;3.326;2024-02-14T09:29:13;11.80;99.90
44990;DHT22;30723;51.206;3.326;2024-02-14T09:31:40;11.80;99.90
44990;DHT22;30723;51.206;3.326;2024-02-14T09:34:06;11.80;99.90
44990;DHT22;30723;51.206;3.326;2024-02-14T09:36:33;11.80;99.90
44990;DHT22;30723;51.206;3.326;2024-02-14T09:38:59;11.80;99.90
44990;DHT22;30723;51.206;3.326;2024-02-14T09:41:36;11.90;99.90
44990;DHT22;30723;51.206;3.326;2024-02-14T09:44:03;11.90;99.90
44990;DHT22;30723;51.206;3.326;2024-02-14T09:46:29;12.00;99.90
44990;DHT22;30723;51.206;3.326;2024-02-14T09:48:59;12.00;99.90
44990;DHT22;30723;51.206;3.326;2024-02-14T09:51:25;12.00;99.90
44990;DHT22;30723;51.206;3.326;2024-02-14T09:53:51;12.10;99.90
44990;DHT22;30723;51.206;3.326;2024-02-14T09:56:20;12.10;99.90
44990;DHT22;30723;51.206;3.326;2024-02-14T09:58:49;12.10;99.90
44990;DHT22;30723;51.206;3.326;2024-02-14T10:01:22;12.10;99.90
44990;DHT22;30723;51.206;3.326;2024-02-14T10:03:50;12.10;99.90
44990;DHT22;30723;51.206;3.326;2024-02-14T10:06:17;12.10;99.90
44990;DHT22;30723;51.206;3.326;2024-02-14T10:08:46;12.10;99.90
44990;DHT22;30723;51.206;3.326;2024-02-14T10:11:12;12.10;99.90
44990;DHT22;30723;51.206;3.326;2024-02-14T10:13:40;12.10;99.90
44990;DHT22;30723;51.206;3.326;2024-02-14T10:16:06;12.20;99.90
44990;DHT22;30723;51.206;3.326;2024-02-14T10:18:35;12.20;99.90
44990;DHT22;30723;51.206;3.326;2024-02-14T10:21:01;12.20;99.90
44990;DHT22;30723;51.206;3.326;2024-02-14T10:23:27;12.30;99.90
44990;DHT22;30723;51.206;3.326;2024-02-14T10:25:53;12.30;99.90
44990;DHT22;30723;51.206;3.326;2024-02-14T10:28:22;12.30;99.90
44990;DHT22;30723;51.206;3.326;2024-02-14T10:30:48;12.20;99.90
44990;DHT22;30723;51.206;3.326;2024-02-14T10:33:18;12.30;99.90
44990;DHT22;30723;51.206;3.326;2024-02-14T10:35:45;12.30;99.90
44990;DHT22;30723;51.206;3.326;2024-02-14T10:38:11;12.30;99.90
44990;DHT22;30723;51.206;3.326;2024-02-14T10:40:38;12.30;99.90
44990;DHT22;30723;51.206;3.326;2024-02-14T10:43:07;12.40;99.90
44990;DHT22;30723;51.206;3.326;2024-02-14T10:45:36;12.40;99.90
44990;DHT22;30723;51.206;3.326;2024-02-14T10:48:04;12.40;99.90
44990;DHT22;30723;51.206;3.326;2024-02-14T10:50:33;12.40;99.90
44990;DHT22;30723;51.206;3.326;2024-02-14T10:53:05;12.50;99.90
44990;DHT22;30723;51.206;3.326;2024-02-14T10:55:33;12.50;99.90
44990;DHT22;30723;51.206;3.326;2024-02-14T10:58:01;12.50;99.90
44990;DHT22;30723;51.206;3.326;2024-02-14T11:00:27;12.60;99.90
44990;DHT22;30723;51.206;3.326;2024-02-14T11:02:53;12.50;99.90
44990;DHT22;30723;51.206;3.326;2024-02-14T11:05:20;12.60;99.90
44990;DHT22;30723;51.206;3.326;2024-02-14T11:07:51;12.60;99.90
44990;DHT22;30723;51.206;3.326;2024-02-14T11:10:20;12.60;99.90
44990;DHT22;30723;51.206;3.326;2024-02-14T11:12:47;12.60;99.90
44990;DHT22;30723;51.206;3.326;2024-02-14T11:15:22;12.60;99.90
44990;DHT22;30723;51.206;3.326;2024-02-14T11:17:50;12.60;99.90
44990;DHT22;30723;51.206;3.326;2024-02-14T11:20:21;12.60;99.90
44990;DHT22;30723;51.206;3.326;2024-02-14T11:22:54;12.70;99.90
44990;DHT22;30723;51.206;3.326;2024-02-14T11:25:35;12.70;99.90
44990;DHT22;30723;51.206;3.326;2024-02-14T11:28:16;12.80;99.90
44990;DHT22;30723;51.206;3.326;2024-02-14T11:30:43;12.70;99.90
44990;DHT22;30723;51.206;3.326;2024-02-14T11:33:22;12.70;99.90
44990;DHT22;30723;51.206;3.326;2024-02-14T11:35:52;12.70;99.90
44990;DHT22;30723;51.206;3.326;2024-02-14T11:38:19;12.80;99.90
44990;DHT22;30723;51.206;3.326;2024-02-14T11:40:45;12.80;99.90
44990;DHT22;30723;51.206;3.326;2024-02-14T11:43:15;12.80;99.90
44990;DHT22;30723;51.206;3.326;2024-02-14T11:45:43;12.80;99.90
44990;DHT22;30723;51.206;3.326;2024-02-14T11:48:14;12.80;99.90
44990;DHT22;30723;51.206;3.326;2024-02-14T11:50:44;12.80;99.90
44990;DHT22;30723;51.206;3.326;2024-02-14T11:53:11;12.80;99.90
44990;DHT22;30723;51.206;3.326;2024-02-14T11:55:40;12.80;99.90
44990;DHT22;30723;51.206;3.326;2024-02-14T11:58:10;12.90;99.90
44990;DHT22;30723;51.206;3.326;2024-02-14T12:00:40;12.90;99.90
44990;DHT22;30723;51.206;3.326;2024-02-14T12:05:43;12.90;99.90
44990;DHT22;30723;51.206;3.326;2024-02-14T12:08:09;13.00;99.90
44990;DHT22;30723;51.206;3.326;2024-02-14T12:10:36;12.90;99.90
44990;DHT22;30723;51.206;3.326;2024-02-14T12:13:11;13.00;99.90
44990;DHT22;30723;51.206;3.326;2024-02-14T12:15:42;13.00;99.90
44990;DHT22;30723;51.206;3.326;2024-02-14T12:18:08;13.00;99.90
44990;DHT22;30723;51.206;3.326;2024-02-14T12:20:35;13.00;99.90
44990;DHT22;30723;51.206;3.326;2024-02-14T12:23:02;13.00;99.90
44990;DHT22;30723;51.206;3.326;2024-02-14T12:25:27;13.10;99.90
44990;DHT22;30723;51.206;3.326;2024-02-14T12:27:56;13.10;99.90
44990;DHT22;30723;51.206;3.326;2024-02-14T12:30:22;13.10;99.90
44990;DHT22;30723;51.206;3.326;2024-02-14T12:33:00;13.10;99.90
44990;DHT22;30723;51.206;3.326;2024-02-14T12:35:34;13.20;99.90
44990;DHT22;30723;51.206;3.326;2024-02-14T12:38:05;13.20;99.90
44990;DHT22;30723;51.206;3.326;2024-02-14T12:40:38;13.10;99.90
44990;DHT22;30723;51.206;3.326;2024-02-14T12:43:10;13.10;99.90
44990;DHT22;30723;51.206;3.326;2024-02-14T12:45:39;13.10;99.90
44990;DHT22;30723;51.206;3.326;2024-02-14T12:48:06;13.10;99.90
44990;DHT22;30723;51.206;3.326;2024-02-14T12:50:34;13.10;99.90
44990;DHT22;30723;51.206;3.326;2024-02-14T12:53:09;13.10;99.90
44990;DHT22;30723;51.206;3.326;2024-02-14T12:55:36;13.10;99.90
44990;DHT22;30723;51.206;3.326;2024-02-14T12:58:03;13.20;99.90
44990;DHT22;30723;51.206;3.326;2024-02-14T13:00:29;13.20;99.90
44990;DHT22;30723;51.206;3.326;2024-02-14T13:02:56;13.20;99.90
44990;DHT22;30723;51.206;3.326;2024-02-14T13:05:22;13.20;99.90
44990;DHT22;30723;51.206;3.326;2024-02-14T13:07:48;13.10;99.90
44990;DHT22;30723;51.206;3.326;2024-02-14T13:10:14;13.20;99.90
44990;DHT22;30723;51.206;3.326;2024-02-14T13:12:40;13.20;99.90
44990;DHT22;30723;51.206;3.326;2024-02-14T13:15:06;13.20;99.90
44990;DHT22;30723;51.206;3.326;2024-02-14T13:17:32;13.10;99.90
44990;DHT22;30723;51.206;3.326;2024-02-14T13:19:58;13.20;99.90
44990;DHT22;30723;51.206;3.326;2024-02-14T13:22:28;13.20;99.90
44990;DHT22;30723;51.206;3.326;2024-02-14T13:24:54;13.20;99.90
44990;DHT22;30723;51.206;3.326;2024-02-14T13:27:21;13.20;99.90
44990;DHT22;30723;51.206;3.326;2024-02-14T13:29:49;13.20;99.90
44990;DHT22;30723;51.206;3.326;2024-02-14T13:32:15;13.20;99.90
44990;DHT22;30723;51.206;3.326;2024-02-14T13:34:41;13.20;99.90
44990;DHT22;30723;51.206;3.326;2024-02-14T13:37:08;13.20;99.90
44990;DHT22;30723;51.206;3.326;2024-02-14T13:39:35;13.30;99.90
44990;DHT22;30723;51.206;3.326;2024-02-14T13:42:00;13.30;99.90
44990;DHT22;30723;51.206;3.326;2024-02-14T13:44:27;13.30;99.90
44990;DHT22;30723;51.206;3.326;2024-02-14T13:46:53;13.30;99.90
44990;DHT22;30723;51.206;3.326;2024-02-14T13:49:19;13.40;99.90
44990;DHT22;30723;51.206;3.326;2024-02-14T13:51:52;13.40;99.90
44990;DHT22;30723;51.206;3.326;2024-02-14T13:54:18;13.40;99.90
44990;DHT22;30723;51.206;3.326;2024-02-14T13:56:44;13.40;99.90
44990;DHT22;30723;51.206;3.326;2024-02-14T13:59:10;13.30;99.90
44990;DHT22;30723;51.206;3.326;2024-02-14T14:01:37;13.30;99.90
44990;DHT22;30723;51.206;3.326;2024-02-14T14:04:03;13.30;99.90
44990;DHT22;30723;51.206;3.326;2024-02-14T14:06:30;13.30;99.90
44990;DHT22;30723;51.206;3.326;2024-02-14T14:08:56;13.30;99.90
44990;DHT22;30723;51.206;3.326;2024-02-14T14:11:21;13.40;99.90
44990;DHT22;30723;51.206;3.326;2024-02-14T14:13:47;13.40;99.90
44990;DHT22;30723;51.206;3.326;2024-02-14T14:16:14;13.40;99.90
44990;DHT22;30723;51.206;3.326;2024-02-14T14:18:39;13.30;99.90
44990;DHT22;30723;51.206;3.326;2024-02-14T14:21:05;13.40;99.90
44990;DHT22;30723;51.206;3.326;2024-02-14T14:23:31;13.40;99.90
44990;DHT22;30723;51.206;3.326;2024-02-14T14:25:58;13.40;99.90
44990;DHT22;30723;51.206;3.326;2024-02-14T14:28:27;13.40;99.90
44990;DHT22;30723;51.206;3.326;2024-02-14T14:30:53;13.50;99.90
44990;DHT22;30723;51.206;3.326;2024-02-14T14:33:22;13.40;99.90
44990;DHT22;30723;51.206;3.326;2024-02-14T14:35:48;13.40;99.90
44990;DHT22;30723;51.206;3.326;2024-02-14T14:38:19;13.40;99.90
44990;DHT22;30723;51.206;3.326;2024-02-14T14:40:45;13.40;99.90
44990;DHT22;30723;51.206;3.326;2024-02-14T14:43:12;13.50;99.90
44990;DHT22;30723;51.206;3.326;2024-02-14T14:45:38;13.40;99.90
44990;DHT22;30723;51.206;3.326;2024-02-14T14:48:04;13.40;99.90
44990;DHT22;30723;51.206;3.326;2024-02-14T14:50:31;13.50;99.90
44990;DHT22;30723;51.206;3.326;2024-02-14T14:52:59;13.40;99.90
44990;DHT22;30723;51.206;3.326;2024-02-14T14:55:26;13.50;99.90
44990;DHT22;30723;51.206;3.326;2024-02-14T14:58:13;13.50;99.90
44990;DHT22;30723;51.206;3.326;2024-02-14T15:00:39;13.50;99.90
44990;DHT22;30723;51.206;3.326;2024-02-14T15:03:05;13.50;99.90
44990;DHT22;30723;51.206;3.326;2024-02-14T15:05:31;13.50;99.90
44990;DHT22;30723;51.206;3.326;2024-02-14T15:07:57;13.50;99.90
44990;DHT22;30723;51.206;3.326;2024-02-14T15:10:22;13.60;99.90
44990;DHT22;30723;51.206;3.326;2024-02-14T15:12:48;13.50;99.90
44990;DHT22;30723;51.206;3.326;2024-02-14T15:15:14;13.50;99.90
44990;DHT22;30723;51.206;3.326;2024-02-14T15:17:40;13.50;99.90
44990;DHT22;30723;51.206;3.326;2024-02-14T15:20:06;13.50;99.90
44990;DHT22;30723;51.206;3.326;2024-02-14T15:22:32;13.50;99.90
44990;DHT22;30723;51.206;3.326;2024-02-14T15:24:59;13.50;99.90
44990;DHT22;30723;51.206;3.326;2024-02-14T15:27:25;13.50;99.90
44990;DHT22;30723;51.206;3.326;2024-02-14T15:29:52;13.50;99.90